Time;durP1;ratioP1;P1;durP2;ratioP2;P2;SDS_P1;SDS_P2;PMS_P1;PMS_P2;Temp;Humidity;BMP_temperature;BMP_pressure;BME280_temperature;BME280_humidity;BME280_pressure;Samples;Min_cycle;Max_cycle;Signal;HPM_P1;HPM_P2
2021/10/19 00:01:31;;;;;;;16.07;10.67;;;12.40;99.90;;;;;;5049870;28;20174;-82
2021/10/19 00:03:57;;;;;;;17.10;11.17;;;12.40;99.90;;;;;;5050405;28;20032;-81
2021/10/19 00:06:23;;;;;;;18.58;11.65;;;12.40;99.90;;;;;;5050182;28;20504;-82
2021/10/19 00:08:48;;;;;;;17.98;12.07;;;12.40;99.90;;;;;;5050880;28;20040;-82
2021/10/19 00:11:14;;;;;;;17.13;11.10;;;12.50;99.90;;;;;;5051083;28;20021;-82
2021/10/19 00:13:41;;;;;;;17.13;10.53;;;12.50;99.90;;;;;;5052114;28;20163;-82
2021/10/19 00:16:08;;;;;;;16.80;11.23;;;12.50;99.90;;;;;;5050213;28;20052;-82
2021/10/19 00:18:34;;;;;;;15.93;10.50;;;12.50;99.90;;;;;;5052426;28;20123;-82
2021/10/19 00:21:00;;;;;;;15.67;10.13;;;12.50;99.90;;;;;;5050733;28;20048;-81
2021/10/19 00:23:25;;;;;;;19.30;11.27;;;12.50;99.90;;;;;;5052606;28;20416;-81
2021/10/19 00:25:51;;;;;;;19.50;11.60;;;12.50;99.90;;;;;;5052868;28;20025;-82
2021/10/19 00:28:16;;;;;;;17.67;10.73;;;12.50;99.90;;;;;;5052850;28;20025;-81
2021/10/19 00:30:42;;;;;;;14.03;9.83;;;12.50;99.90;;;;;;5047695;28;20135;-82
2021/10/19 00:33:08;;;;;;;17.13;10.83;;;12.50;99.90;;;;;;5049086;28;20033;-82
2021/10/19 00:35:34;;;;;;;15.43;10.30;;;12.50;99.90;;;;;;5049384;28;20160;-82
2021/10/19 00:37:59;;;;;;;16.90;10.63;;;12.50;99.90;;;;;;5049984;28;20072;-82
2021/10/19 00:40:25;;;;;;;17.17;10.27;;;12.50;99.90;;;;;;5049811;28;20029;-82
2021/10/19 00:42:51;;;;;;;16.47;10.70;;;12.50;99.90;;;;;;5049629;28;20480;-82
2021/10/19 00:45:17;;;;;;;15.57;10.07;;;12.50;99.90;;;;;;5051372;28;20028;-82
2021/10/19 00:47:51;;;;;;;14.07;9.87;;;12.50;99.90;;;;;;5051376;28;20025;-82
2021/10/19 00:50:18;;;;;;;16.20;10.07;;;12.50;99.90;;;;;;5050981;28;20029;-82
2021/10/19 00:52:44;;;;;;;18.37;9.70;;;12.50;99.90;;;;;;5051410;28;20036;-82
2021/10/19 00:55:11;;;;;;;14.85;9.90;;;12.50;99.90;;;;;;5050169;28;20375;-81
2021/10/19 00:57:38;;;;;;;13.23;9.37;;;12.60;99.90;;;;;;5051192;28;20033;-82
2021/10/19 01:00:05;;;;;;;13.43;9.40;;;12.60;99.90;;;;;;5050877;28;20033;-82
2021/10/19 01:02:31;;;;;;;14.87;9.93;;;12.60;99.90;;;;;;5049287;28;20041;-82
2021/10/19 01:04:56;;;;;;;15.97;10.23;;;12.60;99.90;;;;;;5051687;28;20085;-82
2021/10/19 01:07:23;;;;;;;15.70;9.75;;;12.60;99.90;;;;;;5051462;28;20461;-81
2021/10/19 01:09:48;;;;;;;15.52;9.57;;;12.60;99.90;;;;;;5050813;28;20127;-82
2021/10/19 01:12:14;;;;;;;13.37;9.40;;;12.60;99.90;;;;;;5051397;28;20057;-82
2021/10/19 01:14:40;;;;;;;13.93;9.52;;;12.60;99.90;;;;;;5051685;28;20035;-82
2021/10/19 01:17:08;;;;;;;17.23;10.30;;;12.60;99.90;;;;;;5051340;28;20108;-82
2021/10/19 01:19:34;;;;;;;14.32;9.45;;;12.60;99.90;;;;;;5051115;28;20033;-82
2021/10/19 01:22:04;;;;;;;13.37;9.37;;;12.60;99.90;;;;;;5050887;28;20094;-82
2021/10/19 01:24:30;;;;;;;15.02;9.60;;;12.60;99.90;;;;;;5051126;28;20481;-82
2021/10/19 01:26:56;;;;;;;15.77;10.17;;;12.60;99.90;;;;;;5050199;28;20111;-82
2021/10/19 01:29:22;;;;;;;15.98;10.45;;;12.60;99.90;;;;;;5051309;28;20122;-82
2021/10/19 01:31:55;;;;;;;15.97;10.10;;;12.60;99.90;;;;;;5051374;28;20511;-82
2021/10/19 01:34:21;;;;;;;14.53;9.70;;;12.60;99.90;;;;;;5051838;28;20523;-82
2021/10/19 01:36:48;;;;;;;12.32;9.57;;;12.60;99.90;;;;;;5051235;28;20060;-82
2021/10/19 01:39:14;;;;;;;15.25;9.88;;;12.60;99.90;;;;;;5051089;28;20086;-82
2021/10/19 01:41:45;;;;;;;15.32;10.02;;;12.60;99.90;;;;;;5051286;28;20033;-83
2021/10/19 01:44:11;;;;;;;15.23;10.05;;;12.60;99.90;;;;;;5049793;28;20492;-82
2021/10/19 01:46:37;;;;;;;15.35;10.10;;;12.60;99.90;;;;;;5051288;28;20025;-82
2021/10/19 01:49:03;;;;;;;12.50;9.13;;;12.60;99.90;;;;;;5054236;28;20029;-82
2021/10/19 01:51:28;;;;;;;14.43;10.05;;;12.60;99.90;;;;;;5052972;28;20485;-82
2021/10/19 01:53:54;;;;;;;16.48;10.40;;;12.60;99.90;;;;;;5054837;28;20044;-82
2021/10/19 01:56:20;;;;;;;17.42;10.20;;;12.60;99.90;;;;;;5055588;28;20032;-83
2021/10/19 01:58:46;;;;;;;14.43;9.57;;;12.60;99.90;;;;;;5055019;28;20025;-83
2021/10/19 02:01:11;;;;;;;17.13;10.60;;;12.50;99.90;;;;;;5054408;28;20021;-82
2021/10/19 02:03:37;;;;;;;15.77;10.50;;;12.50;99.90;;;;;;5054823;28;20032;-83
2021/10/19 02:06:02;;;;;;;15.40;9.73;;;12.50;99.90;;;;;;5055612;28;20021;-83
2021/10/19 02:08:28;;;;;;;15.77;10.45;;;12.60;99.90;;;;;;5053163;28;20025;-83
2021/10/19 02:10:54;;;;;;;16.77;10.93;;;12.50;99.90;;;;;;5051971;28;20132;-82
2021/10/19 02:13:19;;;;;;;16.58;10.23;;;12.60;99.90;;;;;;5054531;28;20071;-82
2021/10/19 02:15:45;;;;;;;16.45;10.80;;;12.60;99.90;;;;;;5055588;28;20033;-82
2021/10/19 02:18:11;;;;;;;16.58;11.35;;;12.60;99.90;;;;;;5055263;28;20436;-82
2021/10/19 02:20:40;;;;;;;17.75;10.23;;;12.60;99.90;;;;;;5053320;28;20056;-82
2021/10/19 02:23:07;;;;;;;18.38;11.45;;;12.50;99.90;;;;;;5054515;28;20029;-82
2021/10/19 02:25:32;;;;;;;18.33;12.18;;;12.50;99.90;;;;;;5055822;28;20505;-82
2021/10/19 02:27:58;;;;;;;18.63;11.60;;;12.50;99.90;;;;;;5053913;28;20063;-82
2021/10/19 02:30:25;;;;;;;16.95;11.40;;;12.50;99.90;;;;;;5054973;28;20062;-82
2021/10/19 02:32:52;;;;;;;17.97;11.00;;;12.50;99.90;;;;;;5053406;28;20525;-83
2021/10/19 02:35:20;;;;;;;17.48;11.23;;;12.50;99.90;;;;;;5054508;28;20552;-82
2021/10/19 02:37:46;;;;;;;20.48;11.82;;;12.50;99.90;;;;;;5054005;28;20435;-83
2021/10/19 02:40:15;;;;;;;17.58;12.25;;;12.50;99.90;;;;;;5053472;28;20056;-82
2021/10/19 02:42:41;;;;;;;18.98;12.52;;;12.50;99.90;;;;;;5055691;28;20032;-83
2021/10/19 02:45:08;;;;;;;22.42;12.40;;;12.40;99.90;;;;;;5056105;28;20029;-83
2021/10/19 02:47:34;;;;;;;17.77;12.13;;;12.50;99.90;;;;;;5056321;28;20100;-83
2021/10/19 02:50:00;;;;;;;18.88;13.20;;;12.50;99.90;;;;;;5055624;28;20539;-83
2021/10/19 02:52:25;;;;;;;19.50;13.02;;;12.50;99.90;;;;;;5054916;28;20135;-83
2021/10/19 02:54:51;;;;;;;20.00;13.40;;;12.50;99.90;;;;;;5055848;28;20044;-83
2021/10/19 02:57:18;;;;;;;20.23;12.73;;;12.50;99.90;;;;;;5053161;28;20025;-82
2021/10/19 02:59:44;;;;;;;22.20;13.07;;;12.40;99.90;;;;;;5052004;28;20044;-82
2021/10/19 03:02:10;;;;;;;19.58;13.00;;;12.40;99.90;;;;;;5051968;28;20029;-82
2021/10/19 03:04:36;;;;;;;24.10;14.40;;;12.40;99.90;;;;;;5053789;28;20128;-82
2021/10/19 03:07:01;;;;;;;19.95;13.63;;;12.40;99.90;;;;;;5053042;28;20519;-82
2021/10/19 03:09:27;;;;;;;22.65;13.88;;;12.40;99.90;;;;;;5052042;28;20126;-82
2021/10/19 03:11:53;;;;;;;20.87;13.43;;;12.40;99.90;;;;;;5051812;28;20079;-82
2021/10/19 03:14:18;;;;;;;21.15;13.75;;;12.40;99.90;;;;;;5053294;28;20033;-81
2021/10/19 03:16:44;;;;;;;22.90;13.57;;;12.30;99.90;;;;;;5053766;28;20035;-82
2021/10/19 03:19:10;;;;;;;21.88;14.00;;;12.30;99.90;;;;;;5052487;28;20417;-82
2021/10/19 03:21:35;;;;;;;22.60;14.67;;;12.30;99.90;;;;;;5052931;28;20075;-82
2021/10/19 03:24:01;;;;;;;22.30;14.83;;;12.30;99.90;;;;;;5053035;28;20028;-82
2021/10/19 03:26:26;;;;;;;25.23;15.43;;;12.30;99.90;;;;;;5053291;28;20377;-82
2021/10/19 03:28:52;;;;;;;23.55;14.68;;;12.30;99.90;;;;;;5051839;28;20083;-86
2021/10/19 03:31:17;;;;;;;22.10;14.50;;;12.30;99.90;;;;;;5052464;28;20017;-83
2021/10/19 03:33:43;;;;;;;21.93;14.47;;;12.30;99.90;;;;;;5053669;28;20458;-83
2021/10/19 03:36:09;;;;;;;20.47;13.67;;;12.30;99.90;;;;;;5053846;28;20055;-83
2021/10/19 03:38:36;;;;;;;21.90;13.80;;;12.20;99.90;;;;;;5053267;28;20053;-83
2021/10/19 03:41:02;;;;;;;21.73;14.73;;;12.30;99.90;;;;;;5053779;28;20407;-83
2021/10/19 03:43:28;;;;;;;24.70;15.35;;;12.30;99.90;;;;;;5053249;28;20440;-83
2021/10/19 03:45:54;;;;;;;26.73;15.43;;;12.30;99.90;;;;;;5055143;28;20017;-83
2021/10/19 03:48:19;;;;;;;22.30;15.20;;;12.30;99.90;;;;;;5048408;28;20047;-83
2021/10/19 03:50:45;;;;;;;22.17;13.90;;;12.30;99.90;;;;;;5053046;28;20029;-83
2021/10/19 03:53:15;;;;;;;23.15;15.45;;;12.30;99.90;;;;;;5053667;28;20075;-83
2021/10/19 03:55:40;;;;;;;23.23;15.43;;;12.30;99.90;;;;;;5052896;28;20393;-83
2021/10/19 03:58:06;;;;;;;23.67;15.30;;;12.20;99.90;;;;;;5053989;28;20028;-83
2021/10/19 04:00:32;;;;;;;24.23;15.17;;;12.30;99.90;;;;;;5052775;28;20077;-83
2021/10/19 04:02:57;;;;;;;24.40;15.73;;;12.30;99.90;;;;;;5054435;28;20033;-84
2021/10/19 04:05:23;;;;;;;24.33;16.10;;;12.30;99.90;;;;;;5054765;28;20032;-84
2021/10/19 04:07:49;;;;;;;24.13;15.70;;;12.30;99.90;;;;;;5052506;28;20028;-84
2021/10/19 04:10:15;;;;;;;25.17;15.43;;;12.30;99.90;;;;;;5052495;28;20033;-84
2021/10/19 04:12:41;;;;;;;22.20;14.48;;;12.30;99.90;;;;;;5053325;28;20020;-83
2021/10/19 04:15:08;;;;;;;23.43;15.17;;;12.30;99.90;;;;;;5054851;28;20087;-84
2021/10/19 04:17:34;;;;;;;28.00;16.73;;;12.30;99.90;;;;;;5054458;28;20025;-84
2021/10/19 04:19:59;;;;;;;24.15;15.55;;;12.30;99.90;;;;;;5054545;28;20678;-84
2021/10/19 04:22:25;;;;;;;23.40;15.82;;;12.30;99.90;;;;;;5054231;28;20033;-84
2021/10/19 04:24:52;;;;;;;22.93;14.70;;;12.30;99.90;;;;;;5053589;28;20029;-84
2021/10/19 04:27:19;;;;;;;20.57;14.50;;;12.30;99.90;;;;;;5056005;28;20025;-84
2021/10/19 04:29:45;;;;;;;22.30;15.00;;;12.30;99.90;;;;;;5055294;28;20025;-84
2021/10/19 04:32:10;;;;;;;24.47;15.93;;;12.30;99.90;;;;;;5055598;28;20049;-85
2021/10/19 04:34:36;;;;;;;25.17;15.23;;;12.30;99.90;;;;;;5053348;28;20441;-83
2021/10/19 04:37:02;;;;;;;21.17;14.63;;;12.40;99.90;;;;;;5052160;28;20485;-83
2021/10/19 04:39:28;;;;;;;23.20;15.20;;;12.30;99.90;;;;;;5051542;28;20459;-83
2021/10/19 04:41:54;;;;;;;24.17;15.30;;;12.30;99.90;;;;;;5051359;28;20036;-84
2021/10/19 04:44:20;;;;;;;23.97;15.93;;;12.30;99.90;;;;;;5050264;28;20112;-84
2021/10/19 04:46:46;;;;;;;25.50;15.53;;;12.40;99.90;;;;;;5051448;28;20045;-84
2021/10/19 04:49:12;;;;;;;28.67;17.10;;;12.30;99.90;;;;;;5051357;28;20051;-82
2021/10/19 04:51:38;;;;;;;28.85;17.35;;;12.40;99.90;;;;;;5051011;28;20089;-82
2021/10/19 04:54:03;;;;;;;25.93;16.53;;;12.40;99.90;;;;;;5050074;28;20039;-83
2021/10/19 04:56:29;;;;;;;23.20;15.53;;;12.40;99.90;;;;;;5052061;28;20025;-82
2021/10/19 04:58:55;;;;;;;25.13;15.57;;;12.40;99.90;;;;;;5051332;28;20044;-82
2021/10/19 05:01:21;;;;;;;26.88;17.08;;;12.40;99.90;;;;;;5052201;28;20537;-83
2021/10/19 05:03:47;;;;;;;28.45;17.10;;;12.40;99.90;;;;;;5050798;28;20021;-83
2021/10/19 05:06:13;;;;;;;25.67;16.77;;;12.40;99.90;;;;;;5052407;28;20044;-83
2021/10/19 05:08:39;;;;;;;23.77;15.17;;;12.40;99.90;;;;;;5052588;28;20037;-85
2021/10/19 05:11:05;;;;;;;27.30;16.30;;;12.40;99.90;;;;;;5050913;28;20033;-84
2021/10/19 05:13:31;;;;;;;29.80;17.27;;;12.50;99.90;;;;;;5051631;28;20056;-84
2021/10/19 05:15:56;;;;;;;28.25;17.10;;;12.50;99.90;;;;;;5052278;28;20476;-84
2021/10/19 05:18:22;;;;;;;27.83;16.35;;;12.50;99.90;;;;;;5052516;28;20032;-84
2021/10/19 05:20:51;;;;;;;26.08;15.98;;;12.50;99.90;;;;;;5049337;28;20107;-84
2021/10/19 05:23:17;;;;;;;23.55;15.70;;;12.50;99.90;;;;;;5052696;28;20101;-83
2021/10/19 05:25:42;;;;;;;25.55;16.08;;;12.50;99.90;;;;;;5056635;28;20081;-83
2021/10/19 05:28:08;;;;;;;27.10;16.75;;;12.50;99.90;;;;;;5055669;28;20025;-83
2021/10/19 05:30:34;;;;;;;23.58;16.10;;;12.50;99.90;;;;;;5053918;28;20021;-84
2021/10/19 05:33:03;;;;;;;21.52;14.30;;;12.50;99.90;;;;;;5054710;28;20068;-83
2021/10/19 05:35:32;;;;;;;22.27;14.88;;;12.50;99.90;;;;;;5054576;28;20051;-83
2021/10/19 05:37:58;;;;;;;22.65;14.43;;;12.60;99.90;;;;;;5053460;28;20149;-84
2021/10/19 05:40:24;;;;;;;24.53;15.20;;;12.60;99.90;;;;;;5053592;28;20104;-84
2021/10/19 05:42:50;;;;;;;23.20;14.87;;;12.60;99.90;;;;;;5055512;28;20021;-83
2021/10/19 05:45:17;;;;;;;22.15;15.27;;;12.60;99.90;;;;;;5053795;28;20108;-84
2021/10/19 05:47:43;;;;;;;26.55;15.43;;;12.60;99.90;;;;;;5053417;28;20035;-83
2021/10/19 05:50:09;;;;;;;24.57;15.43;;;12.60;99.90;;;;;;5052975;28;20513;-83
2021/10/19 05:52:35;;;;;;;20.23;14.38;;;12.60;99.90;;;;;;5053001;28;20427;-83
2021/10/19 05:55:01;;;;;;;24.02;15.75;;;12.60;99.90;;;;;;5055560;28;20040;-83
2021/10/19 05:57:26;;;;;;;23.67;16.23;;;12.60;99.90;;;;;;5055274;28;20084;-83
2021/10/19 05:59:52;;;;;;;28.48;17.35;;;12.60;99.90;;;;;;5054223;28;20090;-83
2021/10/19 06:02:17;;;;;;;25.55;16.42;;;12.60;99.90;;;;;;5054562;28;20100;-84
2021/10/19 06:04:43;;;;;;;25.65;16.20;;;12.60;99.90;;;;;;5055093;28;20449;-83
2021/10/19 06:07:09;;;;;;;23.17;15.55;;;12.70;99.90;;;;;;5054231;28;20105;-83
2021/10/19 06:09:35;;;;;;;21.70;14.50;;;12.60;99.90;;;;;;5053804;28;20437;-84
2021/10/19 06:12:01;;;;;;;22.70;14.95;;;12.60;99.90;;;;;;5053320;28;20370;-84
2021/10/19 06:14:27;;;;;;;24.33;14.80;;;12.60;99.90;;;;;;5054712;28;20033;-83
2021/10/19 06:16:52;;;;;;;25.95;16.13;;;12.60;99.90;;;;;;5054984;28;20050;-84
2021/10/19 06:19:18;;;;;;;23.55;16.67;;;12.60;99.90;;;;;;5054853;28;20124;-83
2021/10/19 06:21:44;;;;;;;22.25;15.13;;;12.60;99.90;;;;;;5054945;28;20083;-84
2021/10/19 06:24:10;;;;;;;24.92;15.98;;;12.70;99.90;;;;;;5053380;28;20441;-83
2021/10/19 06:26:37;;;;;;;23.10;15.05;;;12.60;99.90;;;;;;5054900;28;20107;-83
2021/10/19 06:29:08;;;;;;;22.27;15.73;;;12.70;99.90;;;;;;5054599;28;20489;-83
2021/10/19 06:31:34;;;;;;;23.23;14.82;;;12.70;99.90;;;;;;5054523;28;20021;-83
2021/10/19 06:34:00;;;;;;;22.55;14.75;;;12.60;99.90;;;;;;5058544;28;20033;-83
2021/10/19 06:36:27;;;;;;;22.33;14.63;;;12.70;99.90;;;;;;5060555;28;20458;-83
2021/10/19 06:38:53;;;;;;;20.02;14.65;;;12.70;99.90;;;;;;5056628;28;20036;-82
2021/10/19 06:41:19;;;;;;;22.92;15.63;;;12.70;99.90;;;;;;5052881;28;20037;-82
2021/10/19 06:43:45;;;;;;;23.55;15.55;;;12.60;99.90;;;;;;5056382;28;20025;-84
2021/10/19 06:46:11;;;;;;;21.58;15.23;;;12.70;99.90;;;;;;5055100;28;20075;-83
2021/10/19 06:48:36;;;;;;;23.38;15.23;;;12.70;99.90;;;;;;5054187;28;20056;-83
2021/10/19 06:51:05;;;;;;;21.10;14.25;;;12.70;99.90;;;;;;5055534;28;20021;-83
2021/10/19 06:53:31;;;;;;;22.75;15.25;;;12.70;99.90;;;;;;5055442;28;20111;-84
2021/10/19 06:55:56;;;;;;;22.25;14.38;;;12.70;99.90;;;;;;5055314;28;20039;-85
2021/10/19 06:58:24;;;;;;;22.50;15.18;;;12.70;99.90;;;;;;5052524;28;20092;-83
2021/10/19 07:00:50;;;;;;;22.38;14.52;;;12.70;99.90;;;;;;5050584;28;20032;-83
2021/10/19 07:03:16;;;;;;;19.63;13.05;;;12.70;99.90;;;;;;5051200;28;20029;-84
2021/10/19 07:05:42;;;;;;;22.50;14.98;;;12.70;99.90;;;;;;5051864;28;20025;-83
2021/10/19 07:08:07;;;;;;;23.05;14.98;;;12.80;99.90;;;;;;5051602;28;20029;-84
2021/10/19 07:10:33;;;;;;;23.95;16.17;;;12.70;99.90;;;;;;5051936;28;20025;-83
2021/10/19 07:12:58;;;;;;;24.35;15.88;;;12.80;99.90;;;;;;5057544;28;20102;-83
2021/10/19 07:15:24;;;;;;;23.20;15.57;;;12.80;99.90;;;;;;5054951;28;20478;-84
2021/10/19 07:17:50;;;;;;;20.73;14.27;;;12.80;99.90;;;;;;5055108;28;20039;-83
2021/10/19 07:20:15;;;;;;;22.55;14.45;;;12.80;99.90;;;;;;5057722;28;20520;-86
2021/10/19 07:22:43;;;;;;;19.92;14.38;;;12.80;99.90;;;;;;5059391;28;20021;-84
2021/10/19 07:25:10;;;;;;;30.80;16.30;;;12.90;99.90;;;;;;5055019;28;20482;-85
2021/10/19 07:27:36;;;;;;;33.72;15.48;;;12.90;99.90;;;;;;5056701;28;20021;-84
2021/10/19 07:30:02;;;;;;;29.77;15.50;;;12.80;99.90;;;;;;5056502;28;20032;-85
2021/10/19 07:32:28;;;;;;;24.60;14.73;;;12.90;99.90;;;;;;5056980;28;20136;-84
2021/10/19 07:34:53;;;;;;;22.85;14.82;;;12.90;99.90;;;;;;5059370;28;20049;-82
2021/10/19 07:37:19;;;;;;;22.02;14.13;;;12.90;99.90;;;;;;5058676;28;20478;-84
2021/10/19 07:39:45;;;;;;;25.38;14.93;;;12.90;99.90;;;;;;5060625;28;20431;-83
2021/10/19 07:42:11;;;;;;;25.05;15.32;;;12.90;99.90;;;;;;5059827;28;20032;-83
2021/10/19 07:44:37;;;;;;;23.05;14.90;;;13.00;99.90;;;;;;5057288;28;20029;-83
2021/10/19 07:47:03;;;;;;;22.23;14.75;;;13.00;99.90;;;;;;5058996;28;20028;-82
2021/10/19 07:49:29;;;;;;;22.75;14.45;;;13.00;99.90;;;;;;5054080;28;20087;-82
2021/10/19 07:51:54;;;;;;;24.85;15.00;;;13.00;99.90;;;;;;5057355;28;20711;-83
2021/10/19 07:54:21;;;;;;;21.00;14.00;;;13.00;99.90;;;;;;5055707;28;20536;-82
2021/10/19 07:56:47;;;;;;;23.17;14.38;;;13.00;99.90;;;;;;5054423;28;20077;-83
2021/10/19 07:59:12;;;;;;;21.40;14.50;;;13.00;99.90;;;;;;5052212;28;20057;-82
2021/10/19 08:01:38;;;;;;;22.10;14.20;;;13.00;99.90;;;;;;5052395;28;20040;-82
2021/10/19 08:04:04;;;;;;;19.83;13.43;;;13.00;99.90;;;;;;5051413;28;20423;-82
2021/10/19 08:06:30;;;;;;;20.70;13.05;;;13.00;99.90;;;;;;5052704;28;20082;-82
2021/10/19 08:08:56;;;;;;;20.98;13.57;;;13.00;99.90;;;;;;5049967;28;20083;-82
2021/10/19 08:11:22;;;;;;;18.60;12.52;;;13.00;99.90;;;;;;5051232;28;20025;-81
2021/10/19 08:13:47;;;;;;;25.55;14.40;;;13.00;99.90;;;;;;5053057;28;20040;-81
2021/10/19 08:16:13;;;;;;;18.08;12.38;;;13.00;99.90;;;;;;5051768;28;20055;-81
2021/10/19 08:18:39;;;;;;;23.05;14.38;;;13.00;99.90;;;;;;5052851;28;20036;-82
2021/10/19 08:21:06;;;;;;;20.75;14.13;;;13.00;99.90;;;;;;5050272;28;20319;-82
2021/10/19 08:23:32;;;;;;;22.30;14.27;;;13.00;99.90;;;;;;5052129;28;20028;-82
2021/10/19 08:25:58;;;;;;;21.70;14.00;;;13.00;99.90;;;;;;5052674;28;20513;-81
2021/10/19 08:28:30;;;;;;;22.73;13.55;;;13.00;99.90;;;;;;5051078;28;20021;-82
2021/10/19 08:30:56;;;;;;;22.75;14.50;;;13.00;99.90;;;;;;5051908;28;20017;-81
2021/10/19 08:33:22;;;;;;;21.52;14.55;;;13.10;99.90;;;;;;5051400;28;20170;-82
2021/10/19 08:35:48;;;;;;;18.70;13.43;;;13.00;99.90;;;;;;5050942;28;20055;-81
2021/10/19 08:38:13;;;;;;;22.58;14.75;;;13.10;99.90;;;;;;5051659;28;20338;-82
2021/10/19 08:40:45;;;;;;;20.75;13.70;;;13.10;99.90;;;;;;5051658;28;20028;-82
2021/10/19 08:43:11;;;;;;;22.15;13.52;;;13.10;99.90;;;;;;5052102;28;20043;-82
2021/10/19 08:45:37;;;;;;;19.52;12.85;;;13.10;99.90;;;;;;5052710;28;20013;-82
2021/10/19 08:48:04;;;;;;;18.90;12.23;;;13.10;99.90;;;;;;5052570;28;20017;-82
2021/10/19 08:50:30;;;;;;;19.05;12.32;;;13.10;99.90;;;;;;5052192;28;20074;-82
2021/10/19 08:52:56;;;;;;;20.05;12.32;;;13.10;99.90;;;;;;5051838;28;20025;-82
2021/10/19 08:55:22;;;;;;;18.55;11.90;;;13.10;99.90;;;;;;5052854;28;20037;-82
2021/10/19 08:57:48;;;;;;;18.65;11.63;;;13.20;99.90;;;;;;5053089;28;20033;-82
2021/10/19 09:00:15;;;;;;;20.23;11.93;;;13.20;99.90;;;;;;5056477;28;20090;-82
2021/10/19 09:02:44;;;;;;;18.02;11.45;;;13.20;99.90;;;;;;5055756;28;20359;-82
2021/10/19 09:05:22;;;;;;;17.48;11.48;;;13.20;99.90;;;;;;5055088;28;20036;-82
2021/10/19 09:07:56;;;;;;;18.08;11.13;;;13.20;99.90;;;;;;5055785;28;20033;-82
2021/10/19 09:10:22;;;;;;;18.73;10.70;;;13.20;99.90;;;;;;5056698;28;20524;-82
2021/10/19 09:12:59;;;;;;;16.27;10.68;;;13.20;99.90;;;;;;5056966;28;20059;-82
2021/10/19 09:15:30;;;;;;;15.68;10.20;;;13.20;99.90;;;;;;5055840;28;20040;-81
2021/10/19 09:18:03;;;;;;;19.80;11.43;;;13.20;99.90;;;;;;5055681;28;20112;-82
2021/10/19 09:20:34;;;;;;;17.58;10.57;;;13.20;99.90;;;;;;5055595;28;20044;-82
2021/10/19 09:23:01;;;;;;;14.98;10.60;;;13.30;99.90;;;;;;5056436;28;20366;-82
2021/10/19 09:25:33;;;;;;;15.90;10.43;;;13.30;99.90;;;;;;5057141;28;20491;-81
2021/10/19 09:28:01;;;;;;;17.10;10.52;;;13.30;99.90;;;;;;5057567;28;20033;-82
2021/10/19 09:30:47;;;;;;;21.10;11.98;;;13.30;99.90;;;;;;5056015;28;20156;-81
2021/10/19 09:33:18;;;;;;;18.65;10.13;;;13.30;99.90;;;;;;5055447;28;20029;-81
2021/10/19 09:35:48;;;;;;;17.17;9.38;;;13.40;99.90;;;;;;5053097;28;20025;-82
2021/10/19 09:38:14;;;;;;;15.38;9.40;;;13.40;99.90;;;;;;5055001;28;20061;-81
2021/10/19 09:40:44;;;;;;;14.50;9.60;;;13.40;99.90;;;;;;5054548;28;20086;-81
2021/10/19 09:43:13;;;;;;;16.60;10.23;;;13.50;99.90;;;;;;5055111;28;20036;-82
2021/10/19 09:45:42;;;;;;;14.73;9.90;;;13.50;99.90;;;;;;5053258;28;20158;-82
2021/10/19 09:48:14;;;;;;;16.45;10.40;;;13.50;99.90;;;;;;5053757;28;20033;-81
2021/10/19 09:50:42;;;;;;;13.43;9.05;;;13.50;99.90;;;;;;5054374;28;20466;-81
2021/10/19 09:53:10;;;;;;;13.65;9.75;;;13.60;99.90;;;;;;5052971;28;20448;-80
2021/10/19 09:55:38;;;;;;;15.65;9.75;;;13.60;99.90;;;;;;5054818;28;20029;-82
2021/10/19 09:58:04;;;;;;;14.18;9.30;;;13.60;99.90;;;;;;5054346;28;20044;-82
2021/10/19 10:00:33;;;;;;;13.13;8.95;;;13.70;99.90;;;;;;5054157;28;20028;-81
2021/10/19 10:03:04;;;;;;;13.13;8.82;;;13.70;99.90;;;;;;5053406;28;20099;-82
2021/10/19 10:05:33;;;;;;;12.02;8.65;;;13.70;99.90;;;;;;5055386;28;20104;-82
2021/10/19 10:08:00;;;;;;;14.85;9.88;;;13.70;99.90;;;;;;5053381;28;20497;-80
2021/10/19 10:10:27;;;;;;;17.30;9.95;;;13.70;99.90;;;;;;5053474;28;20040;-81
2021/10/19 10:13:03;;;;;;;13.10;10.10;;;13.70;99.90;;;;;;5054262;28;20059;-81
2021/10/19 10:15:33;;;;;;;12.02;8.85;;;13.70;99.90;;;;;;5053774;28;20067;-82
2021/10/19 10:18:04;;;;;;;13.20;9.65;;;13.70;99.90;;;;;;5055131;28;20059;-81
2021/10/19 10:20:41;;;;;;;16.05;10.15;;;13.80;99.90;;;;;;5052629;28;20156;-80
2021/10/19 10:23:22;;;;;;;15.45;10.35;;;13.80;99.90;;;;;;5053600;28;20053;-82
2021/10/19 10:25:50;;;;;;;13.30;9.20;;;13.80;99.90;;;;;;5052998;28;20036;-81
2021/10/19 10:28:35;;;;;;;13.38;10.13;;;13.80;99.90;;;;;;5053962;28;20075;-81
2021/10/19 10:31:18;;;;;;;15.55;10.57;;;13.80;99.90;;;;;;5051513;28;20112;-80
2021/10/19 10:33:47;;;;;;;15.20;10.13;;;13.90;99.90;;;;;;5052373;28;20029;-80
2021/10/19 10:36:13;;;;;;;;;;;13.90;99.90;;;;;;5054079;28;20097;-80
2021/10/19 10:38:53;;;;;;;12.60;8.98;;;13.90;99.90;;;;;;5052012;28;20034;-82
2021/10/19 10:41:19;;;;;;;12.68;9.27;;;13.90;99.90;;;;;;5052740;28;20039;-80
2021/10/19 10:43:59;;;;;;;12.90;9.57;;;13.90;99.90;;;;;;5053671;28;20029;-81
2021/10/19 10:46:25;;;;;;;12.57;9.40;;;13.90;99.90;;;;;;5054301;28;20036;-81
2021/10/19 10:48:54;;;;;;;14.13;10.07;;;14.00;99.90;;;;;;5053466;28;20036;-82
2021/10/19 10:51:31;;;;;;;12.77;9.52;;;13.90;99.90;;;;;;5053457;28;20028;-81
2021/10/19 10:53:57;;;;;;;13.93;10.02;;;14.00;99.90;;;;;;5053269;28;20393;-81
2021/10/19 10:56:23;;;;;;;12.20;9.20;;;14.00;99.90;;;;;;5054122;28;20053;-82
2021/10/19 10:58:50;;;;;;;15.10;9.93;;;14.00;99.90;;;;;;5052206;28;20548;-80
2021/10/19 11:01:22;;;;;;;14.02;10.13;;;14.00;99.90;;;;;;5054768;28;20034;-81
2021/10/19 11:03:50;;;;;;;12.32;9.45;;;14.00;99.90;;;;;;5054810;28;20068;-81
2021/10/19 11:06:17;;;;;;;10.75;8.40;;;14.00;99.90;;;;;;5054548;28;20036;-82
2021/10/19 11:08:46;;;;;;;12.50;9.05;;;14.00;99.90;;;;;;5052221;28;20021;-82
2021/10/19 11:11:14;;;;;;;10.52;8.57;;;14.00;99.90;;;;;;5052345;28;20037;-81
2021/10/19 11:13:55;;;;;;;10.43;8.57;;;14.00;99.90;;;;;;5053617;28;20029;-81
2021/10/19 11:16:27;;;;;;;11.18;7.93;;;14.00;99.90;;;;;;5053097;28;20560;-81
2021/10/19 11:18:53;;;;;;;10.80;8.43;;;14.00;99.90;;;;;;5053813;28;20033;-82
2021/10/19 11:21:19;;;;;;;12.85;9.90;;;14.10;99.90;;;;;;5053643;28;20033;-82
2021/10/19 11:23:46;;;;;;;11.13;9.13;;;14.10;99.90;;;;;;5053128;28;20029;-82
2021/10/19 11:26:12;;;;;;;10.40;7.78;;;14.10;99.90;;;;;;5053869;28;20017;-82
2021/10/19 11:28:42;;;;;;;11.23;8.18;;;14.10;99.90;;;;;;5054126;28;20392;-81
2021/10/19 11:31:08;;;;;;;10.35;8.10;;;14.10;99.90;;;;;;5053859;28;20048;-82
2021/10/19 11:33:36;;;;;;;10.88;9.02;;;14.20;99.90;;;;;;5053451;28;20112;-81
2021/10/19 11:36:03;;;;;;;11.85;9.20;;;14.10;99.90;;;;;;5053278;28;20104;-81
2021/10/19 11:38:29;;;;;;;10.98;8.30;;;14.20;99.90;;;;;;5052767;28;20060;-82
2021/10/19 11:41:07;;;;;;;15.23;8.43;;;14.20;99.90;;;;;;5053329;28;20025;-81
2021/10/19 11:43:35;;;;;;;14.55;10.13;;;14.20;99.90;;;;;;5053208;28;20207;-81
2021/10/19 11:46:06;;;;;;;10.43;8.65;;;14.20;99.90;;;;;;5052440;28;20029;-82
2021/10/19 11:48:33;;;;;;;12.10;9.63;;;14.20;99.90;;;;;;5054179;28;20017;-81
2021/10/19 11:51:01;;;;;;;11.82;9.27;;;14.20;99.90;;;;;;5051364;28;20021;-82
2021/10/19 11:53:28;;;;;;;11.48;9.20;;;14.30;99.90;;;;;;5053694;28;20021;-81
2021/10/19 11:55:55;;;;;;;14.32;10.90;;;14.30;99.90;;;;;;5052394;28;20077;-82
2021/10/19 11:58:23;;;;;;;12.95;10.07;;;14.30;99.90;;;;;;5054396;28;20420;-82
2021/10/19 12:00:51;;;;;;;13.68;10.82;;;14.30;99.90;;;;;;5053492;28;20477;-82
2021/10/19 12:03:17;;;;;;;15.52;11.98;;;14.30;99.90;;;;;;5053117;28;20079;-82
2021/10/19 12:05:43;;;;;;;16.35;11.60;;;14.30;99.90;;;;;;5054554;28;20059;-81
2021/10/19 12:08:09;;;;;;;15.13;11.65;;;14.40;99.90;;;;;;5052897;28;20017;-80
2021/10/19 12:10:35;;;;;;;14.02;11.43;;;14.40;99.90;;;;;;5053574;28;20029;-82
2021/10/19 12:13:06;;;;;;;15.88;13.15;;;14.40;99.90;;;;;;5054021;28;20025;-82
2021/10/19 12:15:33;;;;;;;16.60;14.02;;;14.40;99.90;;;;;;5054376;28;20033;-82
2021/10/19 12:18:16;;;;;;;18.42;13.15;;;14.40;99.90;;;;;;5052522;28;20441;-82
2021/10/19 12:20:42;;;;;;;16.00;11.50;;;14.40;99.90;;;;;;5054799;28;20347;-82
2021/10/19 12:23:11;;;;;;;16.45;13.00;;;14.40;99.90;;;;;;5056903;28;20493;-82
2021/10/19 12:25:43;;;;;;;17.80;13.00;;;14.40;99.90;;;;;;5054240;28;20025;-81
2021/10/19 12:28:28;;;;;;;15.80;12.43;;;14.40;99.90;;;;;;5050563;28;20549;-81